Meteo Giornale » Osservazioni meteo Stati Uniti (USA) » Alliance
ore: 02:53 - Osservazioni Meteo Alliance
Lat. 42° 3' N Lon. 102° 48' W Alt. 1197 metri s.l.m.
18 °C
Pioggia
Temp. 24 Ore
11 °C
29 °C
Nord
5.5 Km/h
Dew point 12 °C
Umidità 67 %
Visibilità 10 Km
Il sole sorge alle ore 06:17
Il sole tramonta alle ore 19:25
| Data e Ora | Cielo e Fenomeni | T °C | DP °C | Um. % | Pres. hPa | Vis. km | Vento km/h | |
|---|---|---|---|---|---|---|---|---|
| Oggi h: 02:53 | Pioggia | 18 | 12 | 67 | 1017 | 10 | N 5.5 | |
| Oggi h: 01:53 | Sereno | 19 | 10 | 55 | 1017 | 10 | SE 11.1 | |
| Oggi h: 00:53 | Sereno | 18 | 9 | 55 | 1017 | 10 | N 0 | |
| Ieri h: 23:53 | Sereno | 18 | 9 | 55 | 1017 | 10 | E/SE 7.4 | |
| Ieri h: 22:53 | Sereno | 19 | 8 | 48 | 1018 | 10 | SE 7.4 | |
| Ieri h: 21:53 | Sereno | 18 | 7 | 48 | 1018 | 10 | SE 9.3 | |
| Ieri h: 20:53 | Sereno | 18 | 7 | 48 | 1017 | 10 | S/SE 14.8 | |
| Ieri h: 19:53 | Sereno | 21 | 8 | 43 | 1017 | 10 | E 13 | |
| Ieri h: 18:53 | Sereno | 26 | 9 | 34 | 1016 | 10 | E/SE 7.4 | |
| Ieri h: 17:53 | Sereno | 29 | 5 | 21 | 1016 | 10 | N 5.5 | |
| Ieri h: 16:53 | Sereno | 29 | 4 | 20 | 1016 | 10 | N 5.5 | |
| Ieri h: 15:53 | Sereno | 28 | 5 | 23 | 1017 | 10 | N 5.5 | |
| Ieri h: 14:53 | Sereno | 29 | 6 | 23 | 1017 | 10 | O 14.8 | |
| Ieri h: 12:53 | Sereno | 28 | 7 | 26 | 1018 | 10 | O/NO 11.1 | |
| Ieri h: 11:53 | Sereno | 28 | 9 | 30 | 1018 | 10 | O/NO 13 | |
| Ieri h: 10:53 | Sereno | 26 | 9 | 34 | 1019 | 10 | O 9.3 | |
| Ieri h: 09:53 | Sereno | 25 | 12 | 44 | 1019 | 10 | S/SO 14.8 | |
| Ieri h: 08:53 | Sereno | 21 | 12 | 56 | 1019 | 10 | S 22.2 | |
| Ieri h: 07:53 | Sereno | 17 | 12 | 72 | 1019 | 10 | S/SE 9.3 | |
| Ieri h: 06:53 | Poco Nuvoloso | 12 | 10 | 87 | 1018 | 10 | N 5.5 | |
| Ieri h: 05:53 | Molto Nuvoloso | 12 | 11 | 93 | 1017 | 10 | N 5.5 | |
| Ieri h: 04:53 | Sereno | 13 | 10 | 81 | 1017 | 10 | N 5.5 | |
| Ieri h: 03:53 | Sereno | 11 | 9 | 87 | 1017 | 10 | S 9.3 | |



